sensor_id;sensor_type;location;lat;lon;timestamp;pressure;altitude;pressure_sealevel;temperature;humidity
42431;BME280;71905;47.466;19.024;2024-02-26T00:00:00;99531.81;;;9.62;100.00
42431;BME280;71905;47.466;19.024;2024-02-26T00:02:30;99536.50;;;9.55;100.00
42431;BME280;71905;47.466;19.024;2024-02-26T00:05:05;99540.97;;;9.53;100.00
42431;BME280;71905;47.466;19.024;2024-02-26T00:07:33;99533.78;;;9.57;100.00
42431;BME280;71905;47.466;19.024;2024-02-26T00:10:03;99531.22;;;9.55;100.00
42431;BME280;71905;47.466;19.024;2024-02-26T00:12:31;99531.22;;;9.55;100.00
42431;BME280;71905;47.466;19.024;2024-02-26T00:14:59;99519.00;;;9.53;100.00
42431;BME280;71905;47.466;19.024;2024-02-26T00:17:28;99520.91;;;9.49;100.00
42431;BME280;71905;47.466;19.024;2024-02-26T00:19:56;99515.50;;;9.52;100.00
42431;BME280;71905;47.466;19.024;2024-02-26T00:22:24;99517.28;;;9.52;100.00
42431;BME280;71905;47.466;19.024;2024-02-26T00:24:52;99513.72;;;9.53;100.00
42431;BME280;71905;47.466;19.024;2024-02-26T00:27:21;99514.72;;;9.50;100.00
42431;BME280;71905;47.466;19.024;2024-02-26T00:29:49;99516.50;;;9.50;100.00
42431;BME280;71905;47.466;19.024;2024-02-26T00:32:16;99513.06;;;9.48;100.00
42431;BME280;71905;47.466;19.024;2024-02-26T00:34:44;99511.44;;;9.45;100.00
42431;BME280;71905;47.466;19.024;2024-02-26T00:37:13;99510.50;;;9.46;100.00
42431;BME280;71905;47.466;19.024;2024-02-26T00:39:41;99513.16;;;9.46;100.00
42431;BME280;71905;47.466;19.024;2024-02-26T00:42:08;99516.00;;;9.41;100.00
42431;BME280;71905;47.466;19.024;2024-02-26T00:44:38;99513.38;;;9.40;100.00
42431;BME280;71905;47.466;19.024;2024-02-26T00:47:06;99509.09;;;9.37;100.00
42431;BME280;71905;47.466;19.024;2024-02-26T00:49:34;99504.69;;;9.38;100.00
42431;BME280;71905;47.466;19.024;2024-02-26T00:52:02;99505.53;;;9.38;100.00
42431;BME280;71905;47.466;19.024;2024-02-26T00:54:31;99497.63;;;9.38;100.00
42431;BME280;71905;47.466;19.024;2024-02-26T00:56:59;99495.00;;;9.38;100.00
42431;BME280;71905;47.466;19.024;2024-02-26T00:59:27;99492.50;;;9.35;100.00
42431;BME280;71905;47.466;19.024;2024-02-26T01:01:56;99494.22;;;9.36;100.00
42431;BME280;71905;47.466;19.024;2024-02-26T01:04:25;99489.00;;;9.35;100.00
42431;BME280;71905;47.466;19.024;2024-02-26T01:06:54;99494.28;;;9.35;100.00
42431;BME280;71905;47.466;19.024;2024-02-26T01:09:22;99494.22;;;9.36;100.00
42431;BME280;71905;47.466;19.024;2024-02-26T01:11:50;99496.06;;;9.34;100.00
42431;BME280;71905;47.466;19.024;2024-02-26T01:14:18;99491.66;;;9.35;100.00
42431;BME280;71905;47.466;19.024;2024-02-26T01:16:46;99496.91;;;9.35;100.00
42431;BME280;71905;47.466;19.024;2024-02-26T01:19:16;99495.06;;;9.37;100.00
42431;BME280;71905;47.466;19.024;2024-02-26T01:21:44;99493.22;;;9.39;100.00
42431;BME280;71905;47.466;19.024;2024-02-26T01:24:12;99486.13;;;9.41;100.00
42431;BME280;71905;47.466;19.024;2024-02-26T01:26:40;99479.13;;;9.40;100.00
42431;BME280;71905;47.466;19.024;2024-02-26T01:29:08;99484.47;;;9.38;100.00
42431;BME280;71905;47.466;19.024;2024-02-26T01:31:36;99481.81;;;9.38;100.00
42431;BME280;71905;47.466;19.024;2024-02-26T01:34:04;99478.41;;;9.36;100.00
42431;BME280;71905;47.466;19.024;2024-02-26T01:36:33;99473.84;;;9.40;100.00
42431;BME280;71905;47.466;19.024;2024-02-26T01:39:02;99475.53;;;9.42;100.00
42431;BME280;71905;47.466;19.024;2024-02-26T01:41:30;99472.97;;;9.41;100.00
42431;BME280;71905;47.466;19.024;2024-02-26T01:43:58;99472.09;;;9.40;100.00
42431;BME280;71905;47.466;19.024;2024-02-26T01:46:26;99468.66;;;9.38;100.00
42431;BME280;71905;47.466;19.024;2024-02-26T01:48:54;99467.94;;;9.35;100.00
42431;BME280;71905;47.466;19.024;2024-02-26T01:51:22;99468.78;;;9.35;100.00
42431;BME280;71905;47.466;19.024;2024-02-26T01:53:53;99467.06;;;9.34;100.00
42431;BME280;71905;47.466;19.024;2024-02-26T01:56:21;99462.53;;;9.38;100.00
42431;BME280;71905;47.466;19.024;2024-02-26T01:58:54;99471.28;;;9.38;100.00
42431;BME280;71905;47.466;19.024;2024-02-26T02:01:25;99467.88;;;9.36;100.00
42431;BME280;71905;47.466;19.024;2024-02-26T02:03:53;99471.34;;;9.37;100.00
42431;BME280;71905;47.466;19.024;2024-02-26T02:06:22;99470.50;;;9.36;100.00
42431;BME280;71905;47.466;19.024;2024-02-26T02:08:52;99462.59;;;9.36;100.00
42431;BME280;71905;47.466;19.024;2024-02-26T02:11:20;99467.88;;;9.36;100.00
42431;BME280;71905;47.466;19.024;2024-02-26T02:13:48;99468.72;;;9.37;100.00
42431;BME280;71905;47.466;19.024;2024-02-26T02:16:18;99477.47;;;9.37;100.00
42431;BME280;71905;47.466;19.024;2024-02-26T02:18:46;99473.13;;;9.36;100.00
42431;BME280;71905;47.466;19.024;2024-02-26T02:21:15;99471.63;;;9.31;100.00
42431;BME280;71905;47.466;19.024;2024-02-26T02:23:44;99475.91;;;9.33;100.00
42431;BME280;71905;47.466;19.024;2024-02-26T02:26:14;99472.47;;;9.31;100.00
42431;BME280;71905;47.466;19.024;2024-02-26T02:28:42;99471.63;;;9.31;100.00
42431;BME280;71905;47.466;19.024;2024-02-26T02:31:10;99466.50;;;9.28;100.00
42431;BME280;71905;47.466;19.024;2024-02-26T02:33:38;99471.75;;;9.28;100.00
42431;BME280;71905;47.466;19.024;2024-02-26T02:36:07;99463.84;;;9.28;100.00
42431;BME280;71905;47.466;19.024;2024-02-26T02:38:38;99469.97;;;9.28;100.00
42431;BME280;71905;47.466;19.024;2024-02-26T02:41:16;99474.31;;;9.29;100.00
42431;BME280;71905;47.466;19.024;2024-02-26T02:43:44;99476.19;;;9.26;100.00
42431;BME280;71905;47.466;19.024;2024-02-26T02:46:12;99476.41;;;9.21;100.00
42431;BME280;71905;47.466;19.024;2024-02-26T02:49:13;99471.06;;;9.23;100.00
42431;BME280;71905;47.466;19.024;2024-02-26T02:51:41;99472.78;;;9.24;100.00
42431;BME280;71905;47.466;19.024;2024-02-26T02:54:10;99470.94;;;9.26;100.00
42431;BME280;71905;47.466;19.024;2024-02-26T02:56:38;99465.72;;;9.24;100.00
42431;BME280;71905;47.466;19.024;2024-02-26T02:59:07;99465.78;;;9.23;100.00
42431;BME280;71905;47.466;19.024;2024-02-26T03:01:36;99465.78;;;9.23;100.00
42431;BME280;71905;47.466;19.024;2024-02-26T03:04:04;99463.03;;;9.26;100.00
42431;BME280;71905;47.466;19.024;2024-02-26T03:06:32;99467.50;;;9.24;100.00
42431;BME280;71905;47.466;19.024;2024-02-26T03:09:00;99470.06;;;9.25;100.00
42431;BME280;71905;47.466;19.024;2024-02-26T03:11:30;99469.22;;;9.25;100.00
42431;BME280;71905;47.466;19.024;2024-02-26T03:13:58;99468.22;;;9.27;100.00
42431;BME280;71905;47.466;19.024;2024-02-26T03:16:26;99470.00;;;9.27;100.00
42431;BME280;71905;47.466;19.024;2024-02-26T03:18:54;99470.88;;;9.27;100.00
42431;BME280;71905;47.466;19.024;2024-02-26T03:21:22;99475.28;;;9.27;100.00
42431;BME280;71905;47.466;19.024;2024-02-26T03:23:50;99462.84;;;9.30;100.00
42431;BME280;71905;47.466;19.024;2024-02-26T03:26:18;99467.22;;;9.31;100.00
42431;BME280;71905;47.466;19.024;2024-02-26T03:28:48;99471.47;;;9.34;100.00
42431;BME280;71905;47.466;19.024;2024-02-26T03:31:16;99466.22;;;9.34;100.00
42431;BME280;71905;47.466;19.024;2024-02-26T03:33:44;99460.09;;;9.33;100.00
42431;BME280;71905;47.466;19.024;2024-02-26T03:36:12;99457.47;;;9.33;100.00
42431;BME280;71905;47.466;19.024;2024-02-26T03:38:40;99461.88;;;9.33;100.00
42431;BME280;71905;47.466;19.024;2024-02-26T03:41:08;99457.53;;;9.32;100.00
42431;BME280;71905;47.466;19.024;2024-02-26T03:43:36;99457.59;;;9.30;100.00
42431;BME280;71905;47.466;19.024;2024-02-26T03:46:08;99448.03;;;9.28;100.00
42431;BME280;71905;47.466;19.024;2024-02-26T03:48:38;99455.06;;;9.27;100.00
42431;BME280;71905;47.466;19.024;2024-02-26T03:51:08;99449.78;;;9.27;100.00
42431;BME280;71905;47.466;19.024;2024-02-26T03:53:36;99448.06;;;9.26;100.00
42431;BME280;71905;47.466;19.024;2024-02-26T03:56:05;99454.19;;;9.27;100.00
42431;BME280;71905;47.466;19.024;2024-02-26T03:58:33;99443.78;;;9.24;100.00
42431;BME280;71905;47.466;19.024;2024-02-26T04:01:01;99442.94;;;9.23;100.00
42431;BME280;71905;47.466;19.024;2024-02-26T04:03:31;99455.25;;;9.23;100.00
42431;BME280;71905;47.466;19.024;2024-02-26T04:05:59;99462.38;;;9.21;100.00
42431;BME280;71905;47.466;19.024;2024-02-26T04:08:30;99455.19;;;9.24;100.00
42431;BME280;71905;47.466;19.024;2024-02-26T04:10:58;99450.00;;;9.23;100.00
42431;BME280;71905;47.466;19.024;2024-02-26T04:13:26;99437.66;;;9.23;100.00
42431;BME280;71905;47.466;19.024;2024-02-26T04:16:08;99439.44;;;9.23;100.00
42431;BME280;71905;47.466;19.024;2024-02-26T04:18:38;99448.16;;;9.25;100.00
42431;BME280;71905;47.466;19.024;2024-02-26T04:21:13;99457.81;;;9.24;100.00
42431;BME280;71905;47.466;19.024;2024-02-26T04:24:29;99456.13;;;9.23;100.00
42431;BME280;71905;47.466;19.024;2024-02-26T04:26:57;99454.28;;;9.25;100.00
42431;BME280;71905;47.466;19.024;2024-02-26T04:29:26;99451.63;;;9.25;100.00
42431;BME280;71905;47.466;19.024;2024-02-26T04:31:57;99448.22;;;9.23;100.00
42431;BME280;71905;47.466;19.024;2024-02-26T04:34:37;99441.28;;;9.21;100.00
42431;BME280;71905;47.466;19.024;2024-02-26T04:37:16;99453.69;;;9.19;100.00
42431;BME280;71905;47.466;19.024;2024-02-26T04:39:44;99451.97;;;9.18;100.00
42431;BME280;71905;47.466;19.024;2024-02-26T04:42:16;99463.44;;;9.17;100.00
42431;BME280;71905;47.466;19.024;2024-02-26T04:44:44;99450.25;;;9.17;100.00
42431;BME280;71905;47.466;19.024;2024-02-26T04:47:29;99446.69;;;9.18;100.00
42431;BME280;71905;47.466;19.024;2024-02-26T04:49:58;99443.94;;;9.21;100.00
42431;BME280;71905;47.466;19.024;2024-02-26T04:52:27;99439.44;;;9.23;100.00
42431;BME280;71905;47.466;19.024;2024-02-26T04:54:57;99432.41;;;9.23;100.00
42431;BME280;71905;47.466;19.024;2024-02-26T04:57:33;99435.97;;;9.22;100.00
42431;BME280;71905;47.466;19.024;2024-02-26T05:00:02;99436.94;;;9.20;100.00
42431;BME280;71905;47.466;19.024;2024-02-26T05:02:31;99430.97;;;9.16;100.00
42431;BME280;71905;47.466;19.024;2024-02-26T05:05:06;99433.53;;;9.18;100.00
42431;BME280;71905;47.466;19.024;2024-02-26T05:07:39;99434.31;;;9.20;100.00
42431;BME280;71905;47.466;19.024;2024-02-26T05:10:08;99433.53;;;9.18;100.00
42431;BME280;71905;47.466;19.024;2024-02-26T05:12:36;99436.09;;;9.19;100.00
42431;BME280;71905;47.466;19.024;2024-02-26T05:15:05;99437.03;;;9.18;100.00
42431;BME280;71905;47.466;19.024;2024-02-26T05:17:33;99445.84;;;9.17;100.00
42431;BME280;71905;47.466;19.024;2024-02-26T05:20:01;99439.66;;;9.18;100.00
42431;BME280;71905;47.466;19.024;2024-02-26T05:22:31;99433.47;;;9.19;100.00
42431;BME280;71905;47.466;19.024;2024-02-26T05:24:59;99436.03;;;9.21;100.00
42431;BME280;71905;47.466;19.024;2024-02-26T05:27:27;99438.66;;;9.21;100.00
42431;BME280;71905;47.466;19.024;2024-02-26T05:29:55;99435.97;;;9.22;100.00
42431;BME280;71905;47.466;19.024;2024-02-26T05:32:23;99438.59;;;9.22;100.00
42431;BME280;71905;47.466;19.024;2024-02-26T05:34:51;99428.91;;;9.23;100.00
42431;BME280;71905;47.466;19.024;2024-02-26T05:37:19;99427.06;;;9.25;100.00
42431;BME280;71905;47.466;19.024;2024-02-26T05:39:49;99423.50;;;9.26;100.00
42431;BME280;71905;47.466;19.024;2024-02-26T05:42:17;99431.47;;;9.24;100.00
42431;BME280;71905;47.466;19.024;2024-02-26T05:44:45;99424.50;;;9.23;100.00
42431;BME280;71905;47.466;19.024;2024-02-26T05:47:13;99438.47;;;9.25;100.00
42431;BME280;71905;47.466;19.024;2024-02-26T05:49:41;99429.69;;;9.25;100.00
42431;BME280;71905;47.466;19.024;2024-02-26T05:52:09;99431.25;;;9.30;100.00
42431;BME280;71905;47.466;19.024;2024-02-26T05:54:37;99435.72;;;9.28;100.00
42431;BME280;71905;47.466;19.024;2024-02-26T05:57:07;99434.88;;;9.28;100.00
42431;BME280;71905;47.466;19.024;2024-02-26T05:59:35;99427.00;;;9.26;100.00
42431;BME280;71905;47.466;19.024;2024-02-26T06:02:03;99433.09;;;9.28;100.00
42431;BME280;71905;47.466;19.024;2024-02-26T06:04:31;99445.28;;;9.31;100.00
42431;BME280;71905;47.466;19.024;2024-02-26T06:06:59;99447.84;;;9.32;100.00
42431;BME280;71905;47.466;19.024;2024-02-26T06:09:27;99447.69;;;9.35;100.00
42431;BME280;71905;47.466;19.024;2024-02-26T06:11:55;99443.22;;;9.37;100.00
42431;BME280;71905;47.466;19.024;2024-02-26T06:14:24;99450.94;;;9.42;100.00
42431;BME280;71905;47.466;19.024;2024-02-26T06:16:52;99449.09;;;9.44;100.00
42431;BME280;71905;47.466;19.024;2024-02-26T06:19:20;99448.25;;;9.43;100.00
42431;BME280;71905;47.466;19.024;2024-02-26T06:21:50;99448.19;;;9.45;100.00
42431;BME280;71905;47.466;19.024;2024-02-26T06:24:18;99456.09;;;9.45;100.00
42431;BME280;71905;47.466;19.024;2024-02-26T06:26:47;99456.63;;;9.53;100.00
42431;BME280;71905;47.466;19.024;2024-02-26T06:29:15;99449.63;;;9.52;100.00
42431;BME280;71905;47.466;19.024;2024-02-26T06:31:45;99460.13;;;9.54;100.00
42431;BME280;71905;47.466;19.024;2024-02-26T06:34:14;99457.47;;;9.54;100.00
42431;BME280;71905;47.466;19.024;2024-02-26T06:36:42;99458.34;;;9.54;100.00
42431;BME280;71905;47.466;19.024;2024-02-26T06:39:10;99459.06;;;9.58;100.00
42431;BME280;71905;47.466;19.024;2024-02-26T06:41:39;99451.78;;;9.63;100.00
42431;BME280;71905;47.466;19.024;2024-02-26T06:44:07;99450.94;;;9.62;100.00
42431;BME280;71905;47.466;19.024;2024-02-26T06:46:36;99449.31;;;9.60;100.00
42431;BME280;71905;47.466;19.024;2024-02-26T06:49:05;99438.63;;;9.63;100.00
42431;BME280;71905;47.466;19.024;2024-02-26T06:51:33;99451.63;;;9.67;100.00
42431;BME280;71905;47.466;19.024;2024-02-26T06:54:01;99444.56;;;9.68;100.00
42431;BME280;71905;47.466;19.024;2024-02-26T06:56:30;99452.59;;;9.65;100.00
42431;BME280;71905;47.466;19.024;2024-02-26T06:58:58;99452.47;;;9.68;100.00
42431;BME280;71905;47.466;19.024;2024-02-26T07:01:26;99454.13;;;9.70;100.00
42431;BME280;71905;47.466;19.024;2024-02-26T07:03:54;99462.81;;;9.72;100.00
42431;BME280;71905;47.466;19.024;2024-02-26T07:06:23;99456.41;;;9.78;100.00
42431;BME280;71905;47.466;19.024;2024-02-26T07:08:51;99445.84;;;9.78;100.00
42431;BME280;71905;47.466;19.024;2024-02-26T07:11:19;99449.16;;;9.83;100.00
42431;BME280;71905;47.466;19.024;2024-02-26T07:13:48;99449.94;;;9.85;100.00
42431;BME280;71905;47.466;19.024;2024-02-26T07:16:16;99448.88;;;9.89;100.00
42431;BME280;71905;47.466;19.024;2024-02-26T07:18:44;99451.34;;;9.94;100.00
42431;BME280;71905;47.466;19.024;2024-02-26T07:21:12;99457.25;;;9.99;100.00
42431;BME280;71905;47.466;19.024;2024-02-26T07:23:42;99454.22;;;10.08;100.00
42431;BME280;71905;47.466;19.024;2024-02-26T07:26:10;99460.13;;;10.13;100.00
42431;BME280;71905;47.466;19.024;2024-02-26T07:28:38;99458.94;;;10.20;100.00
42431;BME280;71905;47.466;19.024;2024-02-26T07:31:06;99458.81;;;10.23;100.00
42431;BME280;71905;47.466;19.024;2024-02-26T07:33:34;99460.31;;;10.29;100.00
42431;BME280;71905;47.466;19.024;2024-02-26T07:36:03;99466.97;;;10.38;100.00
42431;BME280;71905;47.466;19.024;2024-02-26T07:38:31;99463.41;;;10.39;100.00
42431;BME280;71905;47.466;19.024;2024-02-26T07:41:11;99465.91;;;10.42;100.00
42431;BME280;71905;47.466;19.024;2024-02-26T07:43:39;99452.75;;;10.40;100.00
42431;BME280;71905;47.466;19.024;2024-02-26T07:46:11;99455.69;;;10.34;100.00
42431;BME280;71905;47.466;19.024;2024-02-26T07:48:39;99449.94;;;10.45;100.00
42431;BME280;71905;47.466;19.024;2024-02-26T07:51:08;99456.22;;;10.42;100.00
42431;BME280;71905;47.466;19.024;2024-02-26T07:53:36;99456.13;;;10.44;100.00
42431;BME280;71905;47.466;19.024;2024-02-26T07:56:04;99456.75;;;10.49;100.00
42431;BME280;71905;47.466;19.024;2024-02-26T07:58:34;99460.34;;;10.48;100.00
42431;BME280;71905;47.466;19.024;2024-02-26T08:01:03;99462.75;;;10.52;100.00
42431;BME280;71905;47.466;19.024;2024-02-26T08:03:31;99462.47;;;10.58;100.00
42431;BME280;71905;47.466;19.024;2024-02-26T08:05:59;99463.19;;;10.62;100.00
42431;BME280;71905;47.466;19.024;2024-02-26T08:08:27;99450.41;;;10.53;100.00
42431;BME280;71905;47.466;19.024;2024-02-26T08:10:55;99466.34;;;10.70;100.00
42431;BME280;71905;47.466;19.024;2024-02-26T08:13:23;99460.41;;;10.65;100.00
42431;BME280;71905;47.466;19.024;2024-02-26T08:15:53;99464.47;;;10.72;100.00
42431;BME280;71905;47.466;19.024;2024-02-26T08:18:21;99458.06;;;10.59;100.00
42431;BME280;71905;47.466;19.024;2024-02-26T08:20:49;99464.13;;;10.61;100.00
42431;BME280;71905;47.466;19.024;2024-02-26T08:23:17;99468.03;;;10.71;100.00
42431;BME280;71905;47.466;19.024;2024-02-26T08:25:45;99464.03;;;10.81;100.00
42431;BME280;71905;47.466;19.024;2024-02-26T08:28:13;99461.69;;;10.75;100.00
42431;BME280;71905;47.466;19.024;2024-02-26T08:30:44;99456.56;;;10.72;100.00
42431;BME280;71905;47.466;19.024;2024-02-26T08:33:14;99457.31;;;10.74;100.00
42431;BME280;71905;47.466;19.024;2024-02-26T08:35:42;99459.03;;;10.75;100.00
42431;BME280;71905;47.466;19.024;2024-02-26T08:38:10;99454.59;;;10.76;100.00
42431;BME280;71905;47.466;19.024;2024-02-26T08:40:39;99453.69;;;10.77;100.00
42431;BME280;71905;47.466;19.024;2024-02-26T08:43:07;99458.25;;;10.73;100.00
42431;BME280;71905;47.466;19.024;2024-02-26T08:45:36;99457.31;;;10.74;100.00
42431;BME280;71905;47.466;19.024;2024-02-26T08:48:04;99461.41;;;10.81;100.00
42431;BME280;71905;47.466;19.024;2024-02-26T08:50:34;99457.75;;;10.84;100.00
42431;BME280;71905;47.466;19.024;2024-02-26T08:53:02;99455.88;;;10.86;100.00
42431;BME280;71905;47.466;19.024;2024-02-26T08:55:33;99462.09;;;10.85;100.00
42431;BME280;71905;47.466;19.024;2024-02-26T08:58:01;99463.59;;;10.90;100.00
42431;BME280;71905;47.466;19.024;2024-02-26T09:00:30;99465.53;;;10.87;100.00
42431;BME280;71905;47.466;19.024;2024-02-26T09:02:59;99461.88;;;10.89;100.00
42431;BME280;71905;47.466;19.024;2024-02-26T09:05:31;99475.22;;;10.86;100.00
42431;BME280;71905;47.466;19.024;2024-02-26T09:08:00;99470.88;;;10.85;100.00
42431;BME280;71905;47.466;19.024;2024-02-26T09:10:29;99473.69;;;10.82;100.00
42431;BME280;71905;47.466;19.024;2024-02-26T09:12:57;99474.31;;;10.87;100.00
42431;BME280;71905;47.466;19.024;2024-02-26T09:15:25;99474.16;;;10.90;100.00
42431;BME280;71905;47.466;19.024;2024-02-26T09:17:53;99475.94;;;10.90;100.00
42431;BME280;71905;47.466;19.024;2024-02-26T09:20:21;99474.88;;;10.94;100.00
42431;BME280;71905;47.466;19.024;2024-02-26T09:22:50;99480.88;;;10.98;100.00
42431;BME280;71905;47.466;19.024;2024-02-26T09:25:19;99487.78;;;11.00;100.00
42431;BME280;71905;47.466;19.024;2024-02-26T09:27:48;99485.00;;;11.03;100.00
42431;BME280;71905;47.466;19.024;2024-02-26T09:30:16;99483.16;;;11.05;100.00
42431;BME280;71905;47.466;19.024;2024-02-26T09:32:46;99474.41;;;11.03;100.00
42431;BME280;71905;47.466;19.024;2024-02-26T09:35:15;99477.78;;;11.07;100.00
42431;BME280;71905;47.466;19.024;2024-02-26T09:37:43;99471.66;;;11.06;100.00
42431;BME280;71905;47.466;19.024;2024-02-26T09:40:11;99477.47;;;11.13;100.00
42431;BME280;71905;47.466;19.024;2024-02-26T09:42:43;99482.22;;;11.06;100.00
42431;BME280;71905;47.466;19.024;2024-02-26T09:45:18;99479.34;;;11.11;100.00
42431;BME280;71905;47.466;19.024;2024-02-26T09:47:47;99480.03;;;11.14;100.00
42431;BME280;71905;47.466;19.024;2024-02-26T09:50:17;99480.97;;;11.13;100.00
42431;BME280;71905;47.466;19.024;2024-02-26T09:52:51;99482.47;;;11.19;100.00
42431;BME280;71905;47.466;19.024;2024-02-26T09:55:19;99485.75;;;11.24;100.00
42431;BME280;71905;47.466;19.024;2024-02-26T09:57:51;99487.53;;;11.24;100.00
42431;BME280;71905;47.466;19.024;2024-02-26T10:00:21;99488.63;;;11.19;100.00
42431;BME280;71905;47.466;19.024;2024-02-26T10:02:50;99489.25;;;11.25;100.00
42431;BME280;71905;47.466;19.024;2024-02-26T10:05:19;99480.22;;;11.29;100.00
42431;BME280;71905;47.466;19.024;2024-02-26T10:07:47;99480.13;;;11.30;100.00
42431;BME280;71905;47.466;19.024;2024-02-26T10:10:17;99478.13;;;11.35;100.00
42431;BME280;71905;47.466;19.024;2024-02-26T10:12:45;99471.75;;;11.39;100.00
42431;BME280;71905;47.466;19.024;2024-02-26T10:15:15;99468.94;;;11.42;100.00
42431;BME280;71905;47.466;19.024;2024-02-26T10:17:43;99470.69;;;11.43;100.00
42431;BME280;71905;47.466;19.024;2024-02-26T10:20:12;99474.47;;;11.55;100.00
42431;BME280;71905;47.466;19.024;2024-02-26T10:22:42;99465.22;;;11.64;100.00
42431;BME280;71905;47.466;19.024;2024-02-26T10:25:10;99467.75;;;11.84;100.00
42431;BME280;71905;47.466;19.024;2024-02-26T10:27:40;99457.06;;;12.03;100.00
42431;BME280;71905;47.466;19.024;2024-02-26T10:30:17;99455.38;;;12.18;100.00
42431;BME280;71905;47.466;19.024;2024-02-26T10:32:47;99446.78;;;12.30;100.00
42431;BME280;71905;47.466;19.024;2024-02-26T10:35:16;99447.41;;;12.35;100.00
42431;BME280;71905;47.466;19.024;2024-02-26T10:37:45;99450.25;;;12.48;100.00
42431;BME280;71905;47.466;19.024;2024-02-26T10:40:14;99440.75;;;12.59;100.00
42431;BME280;71905;47.466;19.024;2024-02-26T10:42:43;99432.13;;;12.72;100.00
42431;BME280;71905;47.466;19.024;2024-02-26T10:45:12;99428.00;;;12.82;100.00
42431;BME280;71905;47.466;19.024;2024-02-26T10:47:41;99415.28;;;12.88;100.00
42431;BME280;71905;47.466;19.024;2024-02-26T10:50:12;99416.38;;;13.00;100.00
42431;BME280;71905;47.466;19.024;2024-02-26T10:52:45;99404.41;;;13.09;100.00
42431;BME280;71905;47.466;19.024;2024-02-26T10:55:16;99397.19;;;13.11;100.00
42431;BME280;71905;47.466;19.024;2024-02-26T10:57:47;99393.16;;;13.19;100.00
42431;BME280;71905;47.466;19.024;2024-02-26T11:00:16;99397.69;;;13.17;100.00
42431;BME280;71905;47.466;19.024;2024-02-26T11:02:47;99402.22;;;13.15;100.00
42431;BME280;71905;47.466;19.024;2024-02-26T11:05:17;99393.59;;;13.28;100.00
42431;BME280;71905;47.466;19.024;2024-02-26T11:07:45;99386.59;;;13.11;100.00
42431;BME280;71905;47.466;19.024;2024-02-26T11:10:15;99388.31;;;13.42;100.00
42431;BME280;71905;47.466;19.024;2024-02-26T11:12:45;99390.44;;;13.51;100.00
42431;BME280;71905;47.466;19.024;2024-02-26T11:15:14;99393.09;;;13.65;100.00
42431;BME280;71905;47.466;19.024;2024-02-26T11:17:45;99395.13;;;13.76;100.00
42431;BME280;71905;47.466;19.024;2024-02-26T11:20:14;99397.28;;;13.83;100.00
42431;BME280;71905;47.466;19.024;2024-02-26T11:22:42;99394.91;;;13.93;100.00
42431;BME280;71905;47.466;19.024;2024-02-26T11:25:11;99387.34;;;14.01;100.00
42431;BME280;71905;47.466;19.024;2024-02-26T11:27:43;99387.25;;;14.03;100.00
42431;BME280;71905;47.466;19.024;2024-02-26T11:30:13;99387.53;;;14.12;100.00
42431;BME280;71905;47.466;19.024;2024-02-26T11:32:45;99391.28;;;14.23;100.00
42431;BME280;71905;47.466;19.024;2024-02-26T11:35:16;99376.72;;;14.16;100.00
42431;BME280;71905;47.466;19.024;2024-02-26T11:37:53;99380.41;;;14.27;100.00
42431;BME280;71905;47.466;19.024;2024-02-26T11:40:22;99378.03;;;14.23;100.00
42431;BME280;71905;47.466;19.024;2024-02-26T11:42:51;99383.06;;;14.27;100.00
42431;BME280;71905;47.466;19.024;2024-02-26T11:45:51;99383.34;;;14.51;100.00
42431;BME280;71905;47.466;19.024;2024-02-26T11:48:29;99378.88;;;14.37;100.00
42431;BME280;71905;47.466;19.024;2024-02-26T11:50:58;99374.63;;;14.21;100.00
42431;BME280;71905;47.466;19.024;2024-02-26T11:53:28;99382.97;;;14.29;100.00
42431;BME280;71905;47.466;19.024;2024-02-26T11:56:24;99387.97;;;14.33;100.00
42431;BME280;71905;47.466;19.024;2024-02-26T11:59:00;99387.41;;;14.28;100.00
42431;BME280;71905;47.466;19.024;2024-02-26T12:01:42;99379.25;;;14.31;100.00
42431;BME280;71905;47.466;19.024;2024-02-26T12:04:16;99377.78;;;14.13;100.00
42431;BME280;71905;47.466;19.024;2024-02-26T12:06:48;99377.84;;;14.26;100.00
42431;BME280;71905;47.466;19.024;2024-02-26T12:09:31;99378.09;;;14.35;100.00
42431;BME280;71905;47.466;19.024;2024-02-26T12:12:01;99387.41;;;14.57;100.00
42431;BME280;71905;47.466;19.024;2024-02-26T12:14:29;99376.81;;;14.69;100.00
42431;BME280;71905;47.466;19.024;2024-02-26T12:16:58;99374.06;;;14.71;100.00
42431;BME280;71905;47.466;19.024;2024-02-26T12:19:28;99363.47;;;14.57;100.00
42431;BME280;71905;47.466;19.024;2024-02-26T12:21:56;99375.81;;;14.58;100.00
42431;BME280;71905;47.466;19.024;2024-02-26T12:24:24;99368.84;;;14.69;100.00
42431;BME280;71905;47.466;19.024;2024-02-26T12:26:52;99367.28;;;14.53;100.00
42431;BME280;71905;47.466;19.024;2024-02-26T12:29:20;99372.63;;;14.53;100.00
42431;BME280;71905;47.466;19.024;2024-02-26T12:31:49;99364.00;;;14.49;100.00
42431;BME280;71905;47.466;19.024;2024-02-26T12:34:17;99369.75;;;14.41;100.00
42431;BME280;71905;47.466;19.024;2024-02-26T12:36:46;99363.91;;;14.36;100.00
42431;BME280;71905;47.466;19.024;2024-02-26T12:39:14;99368.63;;;14.46;100.00
42431;BME280;71905;47.466;19.024;2024-02-26T12:41:43;99359.97;;;14.42;100.00
42431;BME280;71905;47.466;19.024;2024-02-26T12:44:16;99366.16;;;14.42;100.00
42431;BME280;71905;47.466;19.024;2024-02-26T12:46:44;99366.50;;;14.65;100.00
42431;BME280;71905;47.466;19.024;2024-02-26T12:49:14;99368.22;;;14.66;100.00
42431;BME280;71905;47.466;19.024;2024-02-26T12:51:45;99360.97;;;14.68;100.00
42431;BME280;71905;47.466;19.024;2024-02-26T12:54:13;99357.09;;;14.86;100.00
42431;BME280;71905;47.466;19.024;2024-02-26T12:56:42;99356.66;;;15.07;100.00